BAW6PT EGLC-EGJB
Flight info
| Callsign | BAW6PT |
|---|---|
| Flight time | 0h 45m |
| Altitude | 28000 |
| Route | SOQQA M87 EKNIV M91 LYD M189 NEVIL G27 ANGLO G273 BEVAV |
| Aircraft | RJ1H/M-SDFGIRWY/LB1 |
Departure
| Time | 2026-04-25 12:51 |
|---|---|
| Airport | London City Airport (EGLC) |
Arrival
| Time | 2026-04-25 13:36 |
|---|---|
| Airport | Guernsey Airport (EGJB) |
| Time | Latitude | Longitude | Altitude | Speed | Heading |
|---|---|---|---|---|---|
| 2026-04-25 12:35 | 51.50439 | 0.04754 | 24 ft | 0 kts | 317° |
| 2026-04-25 12:47 | 51.50469 | 0.04688 | 24 ft | 15 kts | 285° |
| 2026-04-25 12:47 | 51.50475 | 0.04497 | 24 ft | 14 kts | 272° |
| 2026-04-25 12:47 | 51.50489 | 0.04443 | 24 ft | 0 kts | 340° |
| 2026-04-25 12:48 | 51.50490 | 0.04443 | 24 ft | 0 kts | 340° |
| 2026-04-25 12:48 | 51.50490 | 0.04442 | 24 ft | 0 kts | 340° |
| 2026-04-25 12:49 | 51.50495 | 0.04440 | 24 ft | 5 kts | 340° |
| 2026-04-25 12:49 | 51.50551 | 0.04454 | 25 ft | 8 kts | 49° |
| 2026-04-25 12:50 | 51.50554 | 0.04519 | 24 ft | 25 kts | 91° |
| 2026-04-25 12:50 | 51.50533 | 0.05223 | 25 ft | 98 kts | 93° |
| 2026-04-25 12:50 | 51.50489 | 0.06612 | 144 ft | 140 kts | 92° |
| 2026-04-25 12:50 | 51.50417 | 0.08311 | 456 ft | 159 kts | 93° |
| 2026-04-25 12:51 | 51.50684 | 0.09981 | 1075 ft | 158 kts | 48° |
| 2026-04-25 12:51 | 51.51486 | 0.11086 | 1851 ft | 150 kts | 40° |
| 2026-04-25 12:51 | 51.52279 | 0.12200 | 2548 ft | 157 kts | 41° |
| 2026-04-25 12:51 | 51.53213 | 0.13490 | 2777 ft | 201 kts | 40° |
| 2026-04-25 12:52 | 51.54368 | 0.15062 | 2959 ft | 225 kts | 40° |
| 2026-04-25 12:52 | 51.55428 | 0.16853 | 2990 ft | 221 kts | 64° |
| 2026-04-25 12:52 | 51.55858 | 0.19219 | 2996 ft | 222 kts | 78° |
| 2026-04-25 12:52 | 51.56041 | 0.21748 | 3492 ft | 229 kts | 88° |
| 2026-04-25 12:53 | 51.56074 | 0.24328 | 4162 ft | 249 kts | 89° |
| 2026-04-25 12:53 | 51.56076 | 0.27290 | 4090 ft | 269 kts | 90° |
| 2026-04-25 12:53 | 51.56051 | 0.30284 | 4040 ft | 268 kts | 91° |
| 2026-04-25 12:53 | 51.56016 | 0.33290 | 4069 ft | 275 kts | 91° |
| 2026-04-25 12:54 | 51.55978 | 0.36334 | 5275 ft | 270 kts | 91° |
| 2026-04-25 12:54 | 51.55934 | 0.39376 | 6288 ft | 275 kts | 91° |
| 2026-04-25 12:54 | 51.55880 | 0.42494 | 6971 ft | 288 kts | 91° |
| 2026-04-25 12:54 | 51.55733 | 0.45715 | 7128 ft | 294 kts | 105° |
| 2026-04-25 12:55 | 51.54816 | 0.48576 | 8273 ft | 285 kts | 124° |
| 2026-04-25 12:55 | 51.54038 | 0.50283 | 8890 ft | 288 kts | 128° |
| 2026-04-25 12:55 | 51.52333 | 0.53679 | 9940 ft | 298 kts | 129° |
| 2026-04-25 12:55 | 51.50971 | 0.56283 | 10145 ft | 306 kts | 130° |
| 2026-04-25 12:56 | 51.49493 | 0.58630 | 10188 ft | 295 kts | 149° |
| 2026-04-25 12:56 | 51.47565 | 0.59617 | 10237 ft | 293 kts | 176° |
| 2026-04-25 12:56 | 51.45512 | 0.59761 | 10250 ft | 296 kts | 179° |
| 2026-04-25 12:56 | 51.43460 | 0.59869 | 10247 ft | 295 kts | 180° |
| 2026-04-25 12:57 | 51.41414 | 0.59759 | 10257 ft | 299 kts | 194° |
| 2026-04-25 12:57 | 51.39499 | 0.58594 | 11117 ft | 292 kts | 203° |
| 2026-04-25 12:57 | 51.37581 | 0.57449 | 11885 ft | 296 kts | 201° |
| 2026-04-25 12:57 | 51.35657 | 0.56366 | 12609 ft | 298 kts | 201° |
| 2026-04-25 12:58 | 51.33665 | 0.55238 | 13360 ft | 301 kts | 201° |
| 2026-04-25 12:58 | 51.31712 | 0.54139 | 14092 ft | 303 kts | 201° |
| 2026-04-25 12:58 | 51.29699 | 0.53006 | 14523 ft | 313 kts | 201° |
| 2026-04-25 12:58 | 51.27608 | 0.51827 | 14807 ft | 324 kts | 201° |
| 2026-04-25 12:59 | 51.25464 | 0.50619 | 15267 ft | 328 kts | 201° |
| 2026-04-25 12:59 | 51.23304 | 0.49405 | 15750 ft | 330 kts | 201° |
| 2026-04-25 12:59 | 51.21132 | 0.48187 | 16202 ft | 333 kts | 201° |
| 2026-04-25 12:59 | 51.18938 | 0.46959 | 16649 ft | 335 kts | 201° |
| 2026-04-25 13:00 | 51.16730 | 0.45733 | 17071 ft | 337 kts | 201° |
| 2026-04-25 13:00 | 51.15259 | 0.44921 | 17348 ft | 339 kts | 201° |
| 2026-04-25 13:00 | 51.12265 | 0.43272 | 17876 ft | 342 kts | 201° |
| 2026-04-25 13:00 | 51.10011 | 0.42037 | 18270 ft | 344 kts | 201° |
| 2026-04-25 13:01 | 51.07741 | 0.40797 | 18650 ft | 346 kts | 201° |
| 2026-04-25 13:01 | 51.05463 | 0.39554 | 19003 ft | 347 kts | 201° |
| 2026-04-25 13:01 | 51.03205 | 0.38205 | 19344 ft | 347 kts | 206° |
| 2026-04-25 13:01 | 51.01022 | 0.36578 | 19691 ft | 347 kts | 208° |
| 2026-04-25 13:02 | 50.98850 | 0.34883 | 20029 ft | 348 kts | 208° |
| 2026-04-25 13:02 | 50.96675 | 0.33169 | 20348 ft | 349 kts | 208° |
| 2026-04-25 13:02 | 50.94490 | 0.31476 | 20674 ft | 350 kts | 208° |
| 2026-04-25 13:02 | 50.92284 | 0.29797 | 21005 ft | 352 kts | 207° |
| 2026-04-25 13:03 | 50.90070 | 0.28149 | 21329 ft | 353 kts | 207° |
| 2026-04-25 13:03 | 50.87839 | 0.26501 | 21645 ft | 354 kts | 207° |
| 2026-04-25 13:03 | 50.85599 | 0.24850 | 21901 ft | 357 kts | 207° |
| 2026-04-25 13:03 | 50.83344 | 0.23192 | 22210 ft | 358 kts | 207° |
| 2026-04-25 13:04 | 50.81083 | 0.21532 | 22519 ft | 359 kts | 207° |
| 2026-04-25 13:04 | 50.78816 | 0.19872 | 22835 ft | 360 kts | 207° |
| 2026-04-25 13:04 | 50.76545 | 0.18207 | 23115 ft | 361 kts | 207° |
| 2026-04-25 13:04 | 50.74262 | 0.16536 | 23413 ft | 362 kts | 207° |
| 2026-04-25 13:05 | 50.72008 | 0.14886 | 23686 ft | 363 kts | 207° |
| 2026-04-25 13:05 | 50.69713 | 0.13209 | 23930 ft | 364 kts | 207° |
| 2026-04-25 13:05 | 50.67413 | 0.11528 | 24153 ft | 365 kts | 207° |
| 2026-04-25 13:05 | 50.65107 | 0.09842 | 24384 ft | 366 kts | 207° |
| 2026-04-25 13:06 | 50.62794 | 0.08152 | 24583 ft | 367 kts | 207° |
| 2026-04-25 13:06 | 50.60468 | 0.06479 | 24801 ft | 368 kts | 206° |
| 2026-04-25 13:06 | 50.58149 | 0.04804 | 25091 ft | 366 kts | 207° |
| 2026-04-25 13:06 | 50.55839 | 0.03126 | 25361 ft | 365 kts | 207° |
| 2026-04-25 13:07 | 50.53536 | 0.01448 | 25624 ft | 365 kts | 207° |
| 2026-04-25 13:07 | 50.51227 | -0.00200 | 25880 ft | 364 kts | 206° |
| 2026-04-25 13:07 | 50.48933 | -0.01855 | 26176 ft | 361 kts | 207° |
| 2026-04-25 13:07 | 50.46655 | -0.03491 | 26469 ft | 360 kts | 206° |
| 2026-04-25 13:08 | 50.44410 | -0.05103 | 26702 ft | 359 kts | 207° |
| 2026-04-25 13:08 | 50.42147 | -0.06748 | 26936 ft | 359 kts | 207° |
| 2026-04-25 13:08 | 50.39876 | -0.08367 | 27165 ft | 358 kts | 206° |
| 2026-04-25 13:08 | 50.37614 | -0.09994 | 27394 ft | 357 kts | 207° |
| 2026-04-25 13:09 | 50.35359 | -0.11624 | 27607 ft | 357 kts | 206° |
| 2026-04-25 13:09 | 50.33101 | -0.13226 | 27838 ft | 356 kts | 206° |
| 2026-04-25 13:09 | 50.30849 | -0.14852 | 28052 ft | 356 kts | 207° |
| 2026-04-25 13:09 | 50.28603 | -0.16454 | 28186 ft | 356 kts | 206° |
| 2026-04-25 13:10 | 50.24154 | -0.19637 | 28226 ft | 349 kts | 207° |
| 2026-04-25 13:10 | 50.19737 | -0.22777 | 28223 ft | 349 kts | 207° |
| 2026-04-25 13:11 | 50.15322 | -0.25950 | 28227 ft | 349 kts | 207° |
| 2026-04-25 13:11 | 50.10884 | -0.29086 | 28227 ft | 354 kts | 207° |
| 2026-04-25 13:12 | 50.06326 | -0.32302 | 28235 ft | 365 kts | 206° |
| 2026-04-25 13:12 | 50.02444 | -0.35051 | 28238 ft | 373 kts | 206° |
| 2026-04-25 13:13 | 49.97226 | -0.39911 | 28240 ft | 382 kts | 218° |
| 2026-04-25 13:13 | 49.93088 | -0.45206 | 28233 ft | 389 kts | 226° |
| 2026-04-25 13:14 | 49.89481 | -0.51580 | 28230 ft | 397 kts | 232° |
| 2026-04-25 13:14 | 49.86049 | -0.58328 | 28224 ft | 400 kts | 232° |
| 2026-04-25 13:15 | 49.82596 | -0.65108 | 28219 ft | 401 kts | 232° |
| 2026-04-25 13:15 | 49.79103 | -0.71845 | 28216 ft | 401 kts | 231° |
| 2026-04-25 13:16 | 49.75588 | -0.78555 | 28213 ft | 401 kts | 232° |
| 2026-04-25 13:16 | 49.72077 | -0.85203 | 28211 ft | 402 kts | 231° |
| 2026-04-25 13:17 | 49.68549 | -0.91916 | 28209 ft | 403 kts | 232° |
| 2026-04-25 13:17 | 49.65013 | -0.98672 | 28206 ft | 405 kts | 232° |
| 2026-04-25 13:18 | 49.61431 | -1.05420 | 27880 ft | 410 kts | 231° |
| 2026-04-25 13:18 | 49.59605 | -1.08781 | 27402 ft | 407 kts | 228° |
| 2026-04-25 13:18 | 49.57603 | -1.11837 | 26936 ft | 405 kts | 223° |
| 2026-04-25 13:19 | 49.55442 | -1.14602 | 26470 ft | 404 kts | 219° |
| 2026-04-25 13:19 | 49.53204 | -1.17204 | 26032 ft | 402 kts | 218° |
| 2026-04-25 13:19 | 49.50955 | -1.19732 | 25574 ft | 400 kts | 217° |
| 2026-04-25 13:19 | 49.50220 | -1.20540 | 25429 ft | 399 kts | 216° |
| 2026-04-25 13:20 | 49.46449 | -1.24664 | 24710 ft | 396 kts | 216° |
| 2026-04-25 13:20 | 49.44071 | -1.26773 | 24293 ft | 395 kts | 207° |
| 2026-04-25 13:20 | 49.41721 | -1.28921 | 23879 ft | 392 kts | 222° |
| 2026-04-25 13:20 | 49.40080 | -1.32207 | 23439 ft | 389 kts | 245° |
| 2026-04-25 13:21 | 49.39301 | -1.36155 | 22985 ft | 385 kts | 258° |
| 2026-04-25 13:21 | 49.38754 | -1.40160 | 22523 ft | 382 kts | 259° |
| 2026-04-25 13:21 | 49.38241 | -1.44153 | 22058 ft | 381 kts | 259° |
| 2026-04-25 13:21 | 49.37763 | -1.48133 | 21601 ft | 378 kts | 260° |
| 2026-04-25 13:22 | 49.37303 | -1.52092 | 21144 ft | 376 kts | 260° |
| 2026-04-25 13:22 | 49.36852 | -1.56021 | 20699 ft | 374 kts | 261° |
| 2026-04-25 13:22 | 49.36405 | -1.59937 | 20260 ft | 372 kts | 261° |
| 2026-04-25 13:23 | 49.35509 | -1.67708 | 19383 ft | 368 kts | 261° |
| 2026-04-25 13:23 | 49.35066 | -1.71512 | 18969 ft | 366 kts | 261° |
| 2026-04-25 13:23 | 49.34614 | -1.75341 | 18552 ft | 364 kts | 261° |
| 2026-04-25 13:23 | 49.34162 | -1.79147 | 18079 ft | 362 kts | 260° |
| 2026-04-25 13:24 | 49.33720 | -1.82926 | 17528 ft | 359 kts | 261° |
| 2026-04-25 13:24 | 49.33286 | -1.86675 | 16955 ft | 356 kts | 261° |
| 2026-04-25 13:24 | 49.32857 | -1.90392 | 16404 ft | 353 kts | 261° |
| 2026-04-25 13:24 | 49.32433 | -1.94081 | 15839 ft | 350 kts | 261° |
| 2026-04-25 13:25 | 49.32012 | -1.97741 | 15306 ft | 348 kts | 261° |
| 2026-04-25 13:25 | 49.31595 | -2.01376 | 14775 ft | 345 kts | 260° |
| 2026-04-25 13:25 | 49.31243 | -2.04992 | 14250 ft | 342 kts | 266° |
| 2026-04-25 13:25 | 49.31164 | -2.08627 | 13702 ft | 340 kts | 269° |
| 2026-04-25 13:26 | 49.31141 | -2.12237 | 13121 ft | 338 kts | 270° |
| 2026-04-25 13:26 | 49.31135 | -2.15834 | 12552 ft | 337 kts | 270° |
| 2026-04-25 13:26 | 49.31141 | -2.19410 | 11993 ft | 334 kts | 270° |
| 2026-04-25 13:26 | 49.31150 | -2.22928 | 11444 ft | 322 kts | 270° |
| 2026-04-25 13:27 | 49.31162 | -2.26272 | 10896 ft | 306 kts | 270° |
| 2026-04-25 13:27 | 49.31171 | -2.29458 | 10347 ft | 294 kts | 270° |
| 2026-04-25 13:27 | 49.31180 | -2.32511 | 9788 ft | 287 kts | 270° |
| 2026-04-25 13:27 | 49.31188 | -2.35540 | 9199 ft | 282 kts | 270° |
| 2026-04-25 13:28 | 49.31196 | -2.38514 | 8626 ft | 278 kts | 270° |
| 2026-04-25 13:28 | 49.31197 | -2.39514 | 8438 ft | 278 kts | 270° |
| 2026-04-25 13:28 | 49.31203 | -2.44414 | 7525 ft | 275 kts | 270° |
| 2026-04-25 13:28 | 49.31202 | -2.47320 | 7053 ft | 271 kts | 270° |
| 2026-04-25 13:29 | 49.31198 | -2.50209 | 6614 ft | 271 kts | 270° |
| 2026-04-25 13:29 | 49.31193 | -2.53088 | 6157 ft | 269 kts | 270° |
| 2026-04-25 13:29 | 49.31187 | -2.55941 | 5697 ft | 266 kts | 270° |
| 2026-04-25 13:30 | 49.31163 | -2.61560 | 4798 ft | 260 kts | 270° |
| 2026-04-25 13:30 | 49.31149 | -2.64242 | 4335 ft | 251 kts | 270° |
| 2026-04-25 13:30 | 49.31139 | -2.66886 | 3859 ft | 246 kts | 270° |
| 2026-04-25 13:31 | 49.31157 | -2.72078 | 2941 ft | 240 kts | 270° |
| 2026-04-25 13:31 | 49.31183 | -2.74617 | 2493 ft | 236 kts | 270° |
| 2026-04-25 13:31 | 49.31216 | -2.77116 | 2170 ft | 234 kts | 270° |
| 2026-04-25 13:31 | 49.31537 | -2.79532 | 2056 ft | 233 kts | 300° |
| 2026-04-25 13:32 | 49.32726 | -2.81140 | 2044 ft | 233 kts | 339° |
| 2026-04-25 13:32 | 49.34315 | -2.81513 | 2055 ft | 233 kts | 357° |
| 2026-04-25 13:32 | 49.35936 | -2.81642 | 2042 ft | 233 kts | 357° |
| 2026-04-25 13:32 | 49.37555 | -2.81729 | 2041 ft | 233 kts | 358° |
| 2026-04-25 13:33 | 49.39172 | -2.81726 | 2035 ft | 232 kts | 8° |
| 2026-04-25 13:33 | 49.40583 | -2.80729 | 2019 ft | 230 kts | 47° |
| 2026-04-25 13:33 | 49.41506 | -2.78736 | 2032 ft | 230 kts | 58° |
| 2026-04-25 13:33 | 49.41801 | -2.78037 | 2035 ft | 231 kts | 57° |
| 2026-04-25 13:34 | 49.43180 | -2.74612 | 2012 ft | 218 kts | 67° |
| 2026-04-25 13:34 | 49.43382 | -2.72351 | 1741 ft | 217 kts | 98° |
| 2026-04-25 13:34 | 49.43263 | -2.70049 | 1471 ft | 211 kts | 88° |
| 2026-04-25 13:34 | 49.43316 | -2.67938 | 1298 ft | 184 kts | 88° |
| 2026-04-25 13:35 | 49.43351 | -2.66090 | 1008 ft | 165 kts | 89° |
| 2026-04-25 13:35 | 49.43390 | -2.64417 | 776 ft | 147 kts | 87° |
| 2026-04-25 13:35 | 49.43427 | -2.62958 | 591 ft | 129 kts | 86° |
| 2026-04-25 13:35 | 49.43456 | -2.61667 | 395 ft | 114 kts | 85° |
| 2026-04-25 13:36 | 49.43488 | -2.60555 | 329 ft | 94 kts | 88° |
| 2026-04-25 13:36 | 49.43510 | -2.59715 | 345 ft | 65 kts | 88° |
| 2026-04-25 13:36 | 49.43502 | -2.59221 | 355 ft | 22 kts | 141° |
| 2026-04-25 13:36 | 49.43374 | -2.59254 | 344 ft | 20 kts | 258° |
| 2026-04-25 13:37 | 49.43367 | -2.59449 | 352 ft | 17 kts | 268° |
| 2026-04-25 13:37 | 49.43365 | -2.59592 | 346 ft | 6 kts | 268° |
| 2026-04-25 13:37 | 49.43349 | -2.59627 | 350 ft | 5 kts | 191° |
| 2026-04-25 13:37 | 49.43299 | -2.59625 | 344 ft | 6 kts | 177° |
| 2026-04-25 13:38 | 49.43265 | -2.59622 | 344 ft | 3 kts | 176° |
| 2026-04-25 13:38 | 49.43256 | -2.59621 | 344 ft | 0 kts | 179° |